^^
Station Historical Data
 
Daily Summary for October 18, 2017 Units:  Metric    English   Both
« Previous Day
Next Day »
Daily Weekly Monthly Yearly Custom
  Current: High: Low: Average:
Temperature: 24.8 °C 25.3 °C 6.4 °C 13.4 °C
Dew Point: 15.2 °C 15.3 °C 5.5 °C 9.7 °C
Humidity: 55% 100% 54% 81%
Wind Speed: 3.2km/h 11.3km/h 0km/h 2.4km/h
Wind Gust: 11.3km/h 16.1km/h - -
WindNNE - - SSE
Pressure: 1017.5 hPa 1022.2 hPa 1017.5 hPa -
Precipitation: 0 mm      
Historical Graphs
 
 
Tabular Data for October 18, 2017
Time Temperature Dew Point Pressure Wind Wind Speed Wind Gust Humidity Rainfall Rate (Hourly) solar Conditions
00:00 11.4 °C 8.9 °C 1022.2 hPa West 1.6 km/h 3.2 km/h 85% 0 mm WeatherDisplay:10.37 W/m2 CLR
00:09 11.3 °C 8.9 °C 1022.2 hPa SW 1.6 km/h 3.2 km/h 85% 0 mm WeatherDisplay:10.37 W/m2 CLR
00:19 11.1 °C 8.7 °C 1022.2 hPa West 1.6 km/h 3.2 km/h 85% 0 mm WeatherDisplay:10.37 W/m2 CLR
00:30 11 °C 8.7 °C 1022.2 hPa Calm   4.8 km/h 86% 0 mm WeatherDisplay:10.37 W/m2 CLR
00:40 10.8 °C 8.6 °C 1022.2 hPa Calm   3.2 km/h 86% 0 mm WeatherDisplay:10.37 W/m2 CLR
00:49 10.7 °C 8.4 °C 1022.2 hPa Calm   3.2 km/h 86% 0 mm WeatherDisplay:10.37 W/m2 CLR
00:59 10.6 °C 8.3 °C 1022.2 hPa Calm   3.2 km/h 86% 0 mm WeatherDisplay:10.37 W/m2 CLR
01:10 10.4 °C 8.2 °C 1021.9 hPa SW 1.6 km/h 3.2 km/h 86% 0 mm WeatherDisplay:10.37 W/m2 CLR
01:20 10.2 °C 7.9 °C 1022.2 hPa Calm   3.2 km/h 86% 0 mm WeatherDisplay:10.37 W/m2 CLR
01:30 10.1 °C 8.1 °C 1022.2 hPa Calm   1.6 km/h 87% 0 mm WeatherDisplay:10.37 W/m2 CLR
01:40 9.9 °C 7.9 °C 1021.9 hPa Calm     87% 0 mm WeatherDisplay:10.37 W/m2 CLR
01:50 9.8 °C 7.7 °C 1022.2 hPa Calm     87% 0 mm WeatherDisplay:10.37 W/m2 CLR
01:59 9.7 °C 7.7 °C 1022.2 hPa Calm     87% 0 mm WeatherDisplay:10.37 W/m2 CLR
02:10 9.6 °C 7.6 °C 1021.9 hPa Calm     87% 0 mm WeatherDisplay:10.37 W/m2 CLR
02:20 9.5 °C 7.4 °C 1021.9 hPa Calm     87% 0 mm WeatherDisplay:10.37 W/m2 CLR
02:30 9.3 °C 7.4 °C 1021.9 hPa Calm   3.2 km/h 88% 0 mm WeatherDisplay:10.37 W/m2 CLR
02:40 9.3 °C 7.6 °C 1021.9 hPa WNW 3.2 km/h 4.8 km/h 89% 0 mm WeatherDisplay:10.37 W/m2 CLR
02:50 9.2 °C 7.5 °C 1021.9 hPa Calm   3.2 km/h 89% 0 mm WeatherDisplay:10.37 W/m2 CLR
02:59 9 °C 7.1 °C 1021.9 hPa SW 3.2 km/h 4.8 km/h 88% 0 mm WeatherDisplay:10.37 W/m2 CLR
03:10 8.8 °C 7.1 °C 1021.9 hPa West 3.2 km/h 6.4 km/h 89% 0 mm WeatherDisplay:10.37 W/m2 CLR
03:19 8.7 °C 7.3 °C 1021.9 hPa West 1.6 km/h 4.8 km/h 91% 0 mm WeatherDisplay:10.37 W/m2 CLR
03:30 8.7 °C 7.3 °C 1021.6 hPa Calm   4.8 km/h 91% 0 mm WeatherDisplay:10.37 W/m2 CLR
03:39 8.6 °C 7.2 °C 1021.6 hPa Calm   3.2 km/h 91% 0 mm WeatherDisplay:10.37 W/m2 CLR
03:50 8.4 °C 6.9 °C 1021.6 hPa Calm   3.2 km/h 90% 0 mm WeatherDisplay:10.37 W/m2 CLR
04:00 8.3 °C 6.8 °C 1021.6 hPa West 1.6 km/h 3.2 km/h 90% 0 mm WeatherDisplay:10.37 W/m2 CLR
04:09 8.3 °C 6.8 °C 1021.6 hPa SW 1.6 km/h 4.8 km/h 90% 0 mm WeatherDisplay:10.37 W/m2 CLR
04:19 8.2 °C 6.7 °C 1021.2 hPa Calm   3.2 km/h 90% 0 mm WeatherDisplay:10.37 W/m2 CLR
04:30 8 °C 6.4 °C 1021.6 hPa Calm   3.2 km/h 90% 0 mm WeatherDisplay:10.37 W/m2 CLR
04:40 7.9 °C 6.2 °C 1021.2 hPa Calm   1.6 km/h 89% 0 mm WeatherDisplay:10.37 W/m2 CLR
04:50 7.8 °C 6.1 °C 1021.2 hPa Calm   3.2 km/h 89% 0 mm WeatherDisplay:10.37 W/m2 CLR
04:59 7.7 °C 5.9 °C 1021.2 hPa Calm   3.2 km/h 89% 0 mm WeatherDisplay:10.37 W/m2 CLR
05:30 7.3 °C 5.6 °C 1021.2 hPa SW 1.6 km/h 3.2 km/h 89% 0 mm WeatherDisplay:10.37 W/m2 CLR
05:40 7.2 °C 5.5 °C 1021.2 hPa West 1.6 km/h 3.2 km/h 89% 0 mm WeatherDisplay:10.37 W/m2 CLR
05:50 7.1 °C 6.2 °C 1021.2 hPa WSW 1.6 km/h 3.2 km/h 94% 0 mm WeatherDisplay:10.37 W/m2 CLR
05:59 7 °C 6.3 °C 1021.2 hPa Calm   3.2 km/h 95% 0 mm WeatherDisplay:10.37 W/m2 CLR
06:09 7 °C 6.3 °C 1021.2 hPa WSW 1.6 km/h 3.2 km/h 95% 0 mm WeatherDisplay:10.37 W/m2 CLR
06:19 6.9 °C 6.2 °C 1021.2 hPa West 1.6 km/h 3.2 km/h 95% 0 mm WeatherDisplay:10.37 W/m2 CLR
06:29 6.8 °C 6.1 °C 1021.2 hPa Calm   3.2 km/h 95% 0 mm WeatherDisplay:10.37 W/m2 CLR
06:40 6.8 °C 6 °C 1021.2 hPa WSW 1.6 km/h 4.8 km/h 95% 0 mm WeatherDisplay:10.37 W/m2 CLR
06:49 6.6 °C 5.8 °C 1021.2 hPa West 3.2 km/h 4.8 km/h 95% 0 mm WeatherDisplay:10.37 W/m2 CLR
07:00 6.5 °C 5.6 °C 1021.2 hPa Calm   4.8 km/h 94% 0 mm WeatherDisplay:10.37 W/m2 CLR
07:10 6.4 °C 5.5 °C 1021.2 hPa WSW 1.6 km/h 3.2 km/h 94% 0 mm WeatherDisplay:10.37 W/m2 CLR
07:19 6.4 °C 5.5 °C 1021.2 hPa Calm   1.6 km/h 94% 0 mm WeatherDisplay:10.37 W/m2 CLR
07:30 6.4 °C 5.7 °C 1021.2 hPa Calm   3.2 km/h 95% 0 mm WeatherDisplay:10.37 W/m2 CLR
07:39 6.4 °C 5.7 °C 1021.2 hPa SW 1.6 km/h 6.4 km/h 95% 0 mm WeatherDisplay:10.37 W/m2 CLR
07:50 6.5 °C 6.1 °C 1021.2 hPa Calm   3.2 km/h 97% 0 mm WeatherDisplay:10.37 W/m2 CLR
08:00 6.6 °C 6.2 °C 1021.2 hPa SW 1.6 km/h 3.2 km/h 97% 0 mm WeatherDisplay:10.37 W/m2 CLR
08:09 6.7 °C 6.4 °C 1021.2 hPa SW 1.6 km/h 3.2 km/h 98% 0 mm WeatherDisplay:10.37 W/m2 CLR
08:19 7 °C 7 °C 1021.2 hPa WSW 1.6 km/h 3.2 km/h 100% 0 mm WeatherDisplay:10.37 W/m2
08:30 7.4 °C 7 °C 1021.2 hPa SW 1.6 km/h 3.2 km/h 97% 0 mm WeatherDisplay:10.37 W/m2 CLR
08:40 8.1 °C 7.7 °C 1021.2 hPa SW 1.6 km/h 3.2 km/h 98% 0 mm WeatherDisplay:10.37 W/m2 CLR
08:50 8.2 °C 8.1 °C 1021.2 hPa SSW 1.6 km/h 1.6 km/h 99% 0 mm WeatherDisplay:10.37 W/m2 CLR
09:00 9.8 °C 9.7 °C 1021.2 hPa South 1.6 km/h 3.2 km/h 99% 0 mm WeatherDisplay:10.37 W/m2 CLR
09:10 11 °C 10.6 °C 1020.9 hPa SSE 1.6 km/h 3.2 km/h 97% 0 mm WeatherDisplay:10.37 W/m2 CLR
09:20 11.9 °C 10.8 °C 1020.9 hPa SSE 1.6 km/h 3.2 km/h 93% 0 mm WeatherDisplay:10.37 W/m2 CLR
09:30 13.1 °C 10.8 °C 1020.9 hPa East 1.6 km/h 4.8 km/h 86% 0 mm WeatherDisplay:10.37 W/m2 CLR
09:40 14.1 °C 11 °C 1020.9 hPa ENE 3.2 km/h 8 km/h 82% 0 mm WeatherDisplay:10.37 W/m2 CLR
09:50 14.5 °C 11.3 °C 1020.9 hPa NE 1.6 km/h 8 km/h 81% 0 mm WeatherDisplay:10.37 W/m2 CLR
10:00 15.6 °C 11.7 °C 1020.9 hPa East 4.8 km/h 8 km/h 78% 0 mm WeatherDisplay:10.37 W/m2 CLR
10:10 16.4 °C 11.9 °C 1020.5 hPa ENE 3.2 km/h 4.8 km/h 75% 0 mm WeatherDisplay:10.37 W/m2 CLR
10:20 16.9 °C 12.2 °C 1020.5 hPa East 1.6 km/h 4.8 km/h 74% 0 mm WeatherDisplay:10.37 W/m2 CLR
10:30 17.3 °C 11.9 °C 1020.5 hPa South 1.6 km/h 4.8 km/h 71% 0 mm WeatherDisplay:10.37 W/m2 CLR
10:40 17.8 °C 12.3 °C 1020.2 hPa South 1.6 km/h 6.4 km/h 70% 0 mm WeatherDisplay:10.37 W/m2 CLR
10:50 18.5 °C 12.5 °C 1020.2 hPa South 4.8 km/h 6.4 km/h 68% 0 mm WeatherDisplay:10.37 W/m2 CLR
11:00 19.2 °C 12.7 °C 1020.2 hPa SSE 1.6 km/h 6.4 km/h 66% 0 mm WeatherDisplay:10.37 W/m2 CLR
11:10 19.6 °C 13.1 °C 1020.2 hPa ESE 1.6 km/h 6.4 km/h 66% 0 mm WeatherDisplay:10.37 W/m2 CLR
11:20 20 °C 13.4 °C 1019.9 hPa SSE 1.6 km/h 4.8 km/h 66% 0 mm WeatherDisplay:10.37 W/m2 CLR
11:30 20.4 °C 13.6 °C 1019.9 hPa SSE 1.6 km/h 6.4 km/h 65% 0 mm WeatherDisplay:10.37 W/m2 CLR
11:40 20.7 °C 13.9 °C 1019.9 hPa SE 8 km/h 11.3 km/h 65% 0 mm WeatherDisplay:10.37 W/m2 CLR
11:50 21.2 °C 14.1 °C 1019.9 hPa NNE 3.2 km/h 11.3 km/h 64% 0 mm WeatherDisplay:10.37 W/m2 CLR
12:00 21.4 °C 14.3 °C 1019.5 hPa NE 3.2 km/h 8 km/h 64% 0 mm WeatherDisplay:10.37 W/m2 CLR
12:10 21.9 °C 15 °C 1019.5 hPa ENE 4.8 km/h 8 km/h 65% 0 mm WeatherDisplay:10.37 W/m2 CLR
12:20 22.3 °C 14.7 °C 1019.2 hPa East 3.2 km/h 9.7 km/h 62% 0 mm WeatherDisplay:10.37 W/m2 CLR
12:30 22.9 °C 15 °C 1019.2 hPa ENE 3.2 km/h 11.3 km/h 61% 0 mm WeatherDisplay:10.37 W/m2 CLR
12:40 23.5 °C 14.8 °C 1019.2 hPa NE 8 km/h 12.9 km/h 58% 0 mm WeatherDisplay:10.37 W/m2 CLR
12:50 23.8 °C 14.8 °C 1018.8 hPa NW 3.2 km/h 12.9 km/h 57% 0 mm WeatherDisplay:10.37 W/m2 CLR
13:00 24.2 °C 14.9 °C 1018.8 hPa NNE 4.8 km/h 11.3 km/h 56% 0 mm WeatherDisplay:10.37 W/m2 CLR
13:10 24.5 °C 15.2 °C 1018.5 hPa North 9.7 km/h 16.1 km/h 56% 0 mm WeatherDisplay:10.37 W/m2 CLR
13:20 24.6 °C 14.9 °C 1018.5 hPa NNE 3.2 km/h 16.1 km/h 55% 0 mm WeatherDisplay:10.37 W/m2 CLR
13:30 24.8 °C 15.2 °C 1018.2 hPa NNE 9.7 km/h 16.1 km/h 55% 0 mm WeatherDisplay:10.37 W/m2 CLR
13:40 24.9 °C 15.2 °C 1018.2 hPa NNE 9.7 km/h 16.1 km/h 55% 0 mm WeatherDisplay:10.37 W/m2 CLR
13:50 25 °C 15.3 °C 1018.2 hPa North 8 km/h 14.5 km/h 55% 0 mm WeatherDisplay:10.37 W/m2 CLR
14:00 25.2 °C 15.2 °C 1017.8 hPa NE 11.3 km/h 16.1 km/h 54% 0 mm WeatherDisplay:10.37 W/m2 CLR
14:10 25.3 °C 15.3 °C 1017.8 hPa NNE 8 km/h 16.1 km/h 54% 0 mm WeatherDisplay:10.37 W/m2 CLR
14:20 25.3 °C 15.3 °C 1017.8 hPa North 1.6 km/h 14.5 km/h 54% 0 mm WeatherDisplay:10.37 W/m2 CLR
14:30 25.2 °C 15.2 °C 1017.5 hPa North 8 km/h 11.3 km/h 54% 0 mm WeatherDisplay:10.37 W/m2 CLR
14:40 24.9 °C 14.9 °C 1017.5 hPa NNE 8 km/h 12.9 km/h 54% 0 mm WeatherDisplay:10.37 W/m2 CLR
14:50 24.8 °C 15.2 °C 1017.5 hPa North 4.8 km/h 11.3 km/h 55% 0 mm WeatherDisplay:10.37 W/m2 CLR
15:00 24.8 °C 15.2 °C 1017.5 hPa NNE 3.2 km/h 11.3 km/h 55% 0 mm WeatherDisplay:10.37 W/m2 CLR
Knjazevac, Serbia
Compliments of Weather Underground - 1.25 mb